DLH29C EDDH-EDDF
Flight info
| Callsign | DLH29C |
|---|---|
| Flight time | N/A |
| Altitude | 30000 |
| Route | AMLUH2G AMLUH M852 DENIX DCT RIMET/N0475F310 T157 KOKEB/N0413F230 T157 KERAX KERAX5D |
| Aircraft | A343/H-SDE2E3FGHIJ4J5M1RWXY/LB1D1 |
Departure
| Time | 2026-04-21 14:00 |
|---|---|
| Airport | Hamburg Helmut Schmidt Airport (EDDH) |
Arrival
| Time | N/A |
|---|---|
| Airport | Frankfurt Main Airport (EDDF) |
| Time | Latitude | Longitude | Altitude | Speed | Heading |
|---|---|---|---|---|---|
| 2026-04-21 13:46 | 53.63011 | 10.00342 | 52 ft | 0 kts | 123° |
| 2026-04-21 13:53 | 53.63017 | 10.00328 | 48 ft | 2 kts | 123° |
| 2026-04-21 13:53 | 53.63024 | 10.00309 | 49 ft | 2 kts | 123° |
| 2026-04-21 13:53 | 53.63033 | 10.00289 | 46 ft | 3 kts | 135° |
| 2026-04-21 13:54 | 53.63045 | 10.00268 | 46 ft | 3 kts | 140° |
| 2026-04-21 13:54 | 53.63059 | 10.00250 | 48 ft | 3 kts | 147° |
| 2026-04-21 13:54 | 53.63074 | 10.00234 | 45 ft | 3 kts | 160° |
| 2026-04-21 13:54 | 53.63091 | 10.00227 | 44 ft | 3 kts | 177° |
| 2026-04-21 13:55 | 53.63103 | 10.00226 | 45 ft | 0 kts | 177° |
| 2026-04-21 13:56 | 53.63101 | 10.00226 | 45 ft | 1 kts | 177° |
| 2026-04-21 13:56 | 53.63078 | 10.00225 | 46 ft | 5 kts | 186° |
| 2026-04-21 13:57 | 53.63037 | 10.00192 | 42 ft | 8 kts | 213° |
| 2026-04-21 13:57 | 53.62979 | 10.00128 | 47 ft | 12 kts | 213° |
| 2026-04-21 13:57 | 53.62912 | 10.00056 | 48 ft | 10 kts | 211° |
| 2026-04-21 13:57 | 53.62853 | 9.99987 | 51 ft | 7 kts | 234° |
| 2026-04-21 13:58 | 53.62821 | 9.99884 | 50 ft | 13 kts | 248° |
| 2026-04-21 13:58 | 53.62858 | 9.99756 | 49 ft | 14 kts | 330° |
| 2026-04-21 13:58 | 53.62881 | 9.99735 | 49 ft | 0 kts | 332° |
| 2026-04-21 13:59 | 53.62968 | 9.99659 | 49 ft | 44 kts | 333° |
| 2026-04-21 13:59 | 53.63476 | 9.99210 | 51 ft | 120 kts | 333° |
| 2026-04-21 13:59 | 53.64378 | 9.98387 | 227 ft | 164 kts | 327° |
| 2026-04-21 14:00 | 53.65329 | 9.97436 | 1125 ft | 155 kts | 332° |
| 2026-04-21 14:00 | 53.66341 | 9.96483 | 1752 ft | 180 kts | 332° |
| 2026-04-21 14:00 | 53.67498 | 9.95416 | 2440 ft | 195 kts | 331° |
| 2026-04-21 14:00 | 53.68761 | 9.94488 | 3364 ft | 203 kts | 346° |
| 2026-04-21 14:01 | 53.70179 | 9.94361 | 4401 ft | 206 kts | 10° |
| 2026-04-21 14:01 | 53.71501 | 9.95237 | 5574 ft | 205 kts | 33° |
| 2026-04-21 14:01 | 53.72470 | 9.96976 | 6822 ft | 203 kts | 52° |
| 2026-04-21 14:01 | 53.73207 | 9.98997 | 8003 ft | 203 kts | 56° |
| 2026-04-21 14:02 | 53.73660 | 10.00395 | 8697 ft | 208 kts | 61° |
| 2026-04-21 14:02 | 53.74076 | 10.03630 | 10097 ft | 217 kts | 87° |
| 2026-04-21 14:02 | 53.73712 | 10.06175 | 10782 ft | 242 kts | 105° |
| 2026-04-21 14:03 | 53.72004 | 10.11550 | 12271 ft | 271 kts | 112° |
| 2026-04-21 14:03 | 53.71058 | 10.14350 | 13163 ft | 278 kts | 112° |
| 2026-04-21 14:03 | 53.69959 | 10.17103 | 14032 ft | 288 kts | 120° |
| 2026-04-21 14:03 | 53.68537 | 10.19639 | 14476 ft | 311 kts | 131° |
| 2026-04-21 14:04 | 53.66664 | 10.21804 | 14679 ft | 341 kts | 144° |
| 2026-04-21 14:04 | 53.64378 | 10.23284 | 15157 ft | 360 kts | 155° |
| 2026-04-21 14:04 | 53.61937 | 10.24426 | 15882 ft | 367 kts | 157° |
| 2026-04-21 14:04 | 53.59483 | 10.25525 | 16625 ft | 373 kts | 157° |
| 2026-04-21 14:05 | 53.56952 | 10.26661 | 17365 ft | 379 kts | 157° |
| 2026-04-21 14:05 | 53.54391 | 10.27819 | 18122 ft | 384 kts | 157° |
| 2026-04-21 14:05 | 53.51801 | 10.28994 | 18846 ft | 389 kts | 157° |
| 2026-04-21 14:05 | 53.49177 | 10.30185 | 19517 ft | 392 kts | 157° |
| 2026-04-21 14:06 | 53.46536 | 10.31386 | 20205 ft | 395 kts | 157° |
| 2026-04-21 14:06 | 53.43871 | 10.32597 | 20878 ft | 398 kts | 156° |
| 2026-04-21 14:06 | 53.41191 | 10.33840 | 21564 ft | 400 kts | 155° |
| 2026-04-21 14:06 | 53.38519 | 10.35194 | 22185 ft | 402 kts | 154° |
| 2026-04-21 14:07 | 53.35833 | 10.36582 | 22788 ft | 406 kts | 154° |
| 2026-04-21 14:07 | 53.33123 | 10.37943 | 23367 ft | 409 kts | 155° |
| 2026-04-21 14:07 | 53.30368 | 10.39267 | 23950 ft | 413 kts | 155° |
| 2026-04-21 14:07 | 53.27596 | 10.40551 | 24406 ft | 416 kts | 155° |
| 2026-04-21 14:08 | 53.24826 | 10.41803 | 24834 ft | 419 kts | 156° |
| 2026-04-21 14:08 | 53.22003 | 10.43058 | 25297 ft | 421 kts | 156° |
| 2026-04-21 14:08 | 53.19157 | 10.44317 | 25748 ft | 423 kts | 156° |
| 2026-04-21 14:08 | 53.16299 | 10.45560 | 26125 ft | 427 kts | 158° |
| 2026-04-21 14:09 | 53.13340 | 10.46400 | 26482 ft | 436 kts | 165° |
| 2026-04-21 14:09 | 53.10281 | 10.46565 | 26912 ft | 443 kts | 172° |
| 2026-04-21 14:09 | 53.07201 | 10.46324 | 27382 ft | 445 kts | 174° |
| 2026-04-21 14:09 | 53.04099 | 10.45961 | 27759 ft | 448 kts | 175° |
| 2026-04-21 14:10 | 53.00979 | 10.45529 | 28118 ft | 451 kts | 175° |
| 2026-04-21 14:10 | 52.97850 | 10.45073 | 28455 ft | 453 kts | 175° |
| 2026-04-21 14:10 | 52.94696 | 10.44611 | 28788 ft | 456 kts | 175° |
| 2026-04-21 14:10 | 52.91528 | 10.44156 | 29116 ft | 458 kts | 175° |
| 2026-04-21 14:11 | 52.88353 | 10.43709 | 29434 ft | 460 kts | 175° |
| 2026-04-21 14:11 | 52.85200 | 10.43274 | 29740 ft | 461 kts | 175° |
| 2026-04-21 14:11 | 52.81988 | 10.42838 | 30035 ft | 463 kts | 175° |
| 2026-04-21 14:11 | 52.78773 | 10.42404 | 30282 ft | 466 kts | 175° |
| 2026-04-21 14:12 | 52.75519 | 10.41972 | 30307 ft | 470 kts | 175° |
| 2026-04-21 14:12 | 52.69028 | 10.41076 | 30300 ft | 467 kts | 175° |
| 2026-04-21 14:13 | 52.62557 | 10.40189 | 30303 ft | 467 kts | 175° |
| 2026-04-21 14:13 | 52.56130 | 10.39323 | 30301 ft | 467 kts | 175° |